createdAt,value
2022-09-26T00:01:30.560Z,56.45
2022-09-26T00:03:57.296Z,56.60
2022-09-26T00:06:23.635Z,57.06
2022-09-26T00:08:50.532Z,56.27
2022-09-26T00:11:16.876Z,55.86
2022-09-26T00:13:43.257Z,55.40
2022-09-26T00:16:09.905Z,55.04
2022-09-26T00:18:36.357Z,54.99
2022-09-26T00:21:02.874Z,55.73
2022-09-26T00:23:29.320Z,56.69
2022-09-26T00:25:55.696Z,56.00
2022-09-26T00:28:22.102Z,56.45
2022-09-26T00:30:48.751Z,57.23
2022-09-26T00:33:15.125Z,57.13
2022-09-26T00:35:41.438Z,56.13
2022-09-26T00:38:08.101Z,55.67
2022-09-26T00:40:34.766Z,56.37
2022-09-26T00:43:01.334Z,56.32
2022-09-26T00:45:27.812Z,56.30
2022-09-26T00:47:54.251Z,56.87
2022-09-26T00:50:20.589Z,55.94
2022-09-26T00:52:46.987Z,55.43
2022-09-26T00:55:13.404Z,55.22
2022-09-26T00:57:39.733Z,55.10
2022-09-26T01:00:06.349Z,54.88
2022-09-26T01:02:32.789Z,54.21
2022-09-26T01:04:59.154Z,54.13
2022-09-26T01:07:26.436Z,55.95
2022-09-26T01:09:53.047Z,55.93
2022-09-26T01:12:19.554Z,55.44
2022-09-26T01:14:45.950Z,55.60
2022-09-26T01:17:12.327Z,56.21
2022-09-26T01:19:38.773Z,56.15
2022-09-26T01:22:05.393Z,56.44
2022-09-26T01:24:31.756Z,56.04
2022-09-26T01:26:58.344Z,55.17
2022-09-26T01:29:24.987Z,55.20
2022-09-26T01:31:51.393Z,54.86
2022-09-26T01:34:17.759Z,54.71
2022-09-26T01:36:44.521Z,54.95
2022-09-26T01:39:10.900Z,54.81
2022-09-26T01:41:37.390Z,56.30
2022-09-26T01:44:04.281Z,56.33
2022-09-26T01:46:30.721Z,55.55
2022-09-26T01:48:57.170Z,55.43
2022-09-26T01:51:24.252Z,55.18
2022-09-26T01:53:50.670Z,54.88
2022-09-26T01:56:16.965Z,54.64
2022-09-26T01:58:43.542Z,55.39
2022-09-26T02:01:10.039Z,55.67
2022-09-26T02:03:36.416Z,55.20
2022-09-26T02:06:02.809Z,55.03
2022-09-26T02:08:29.427Z,55.12
2022-09-26T02:10:55.822Z,54.71
2022-09-26T02:13:22.258Z,54.52
2022-09-26T02:15:48.725Z,54.23
2022-09-26T02:18:15.057Z,54.65
2022-09-26T02:20:41.747Z,54.44
2022-09-26T02:23:08.135Z,54.75
2022-09-26T02:25:34.537Z,54.58
2022-09-26T02:28:01.144Z,54.72
2022-09-26T02:30:27.544Z,54.91
2022-09-26T02:32:53.939Z,55.13
2022-09-26T02:35:20.549Z,54.73
2022-09-26T02:37:46.899Z,54.70
2022-09-26T02:40:13.323Z,54.76
2022-09-26T02:42:40.344Z,55.33
2022-09-26T02:45:06.774Z,55.11
2022-09-26T02:47:33.133Z,54.83
2022-09-26T02:49:59.694Z,54.94
2022-09-26T02:52:26.055Z,54.77
2022-09-26T02:54:52.609Z,54.58
2022-09-26T02:57:19.249Z,54.25
2022-09-26T02:59:45.693Z,54.10
2022-09-26T03:02:12.133Z,54.23
2022-09-26T03:04:38.645Z,54.56
2022-09-26T03:07:05.058Z,55.68
2022-09-26T03:09:31.399Z,55.64
2022-09-26T03:11:57.804Z,56.48
2022-09-26T03:14:24.217Z,55.30
2022-09-26T03:16:50.658Z,54.82
2022-09-26T03:19:17.321Z,54.97
2022-09-26T03:21:43.715Z,54.77
2022-09-26T03:24:10.057Z,54.90
2022-09-26T03:26:36.680Z,54.52
2022-09-26T03:29:03.010Z,54.24
2022-09-26T03:31:29.428Z,54.01
2022-09-26T03:33:56.040Z,54.58
2022-09-26T03:36:22.376Z,55.54
2022-09-26T03:38:48.797Z,57.15
2022-09-26T03:41:15.549Z,56.86
2022-09-26T03:43:41.901Z,56.26
2022-09-26T03:46:08.302Z,55.58
2022-09-26T03:48:35.098Z,54.88
2022-09-26T03:51:01.514Z,54.48
2022-09-26T03:53:27.840Z,54.70
2022-09-26T03:55:54.245Z,54.37
2022-09-26T03:58:20.603Z,55.09
2022-09-26T04:00:47.073Z,55.34
2022-09-26T04:03:13.869Z,55.37
2022-09-26T04:05:40.315Z,55.19
2022-09-26T04:08:06.656Z,55.51
2022-09-26T04:10:33.638Z,54.88
2022-09-26T04:12:59.982Z,54.84
2022-09-26T04:15:26.418Z,53.96
2022-09-26T04:17:52.992Z,53.79
2022-09-26T04:20:19.293Z,53.58
2022-09-26T04:22:45.626Z,53.10
2022-09-26T04:25:11.976Z,53.59
2022-09-26T04:27:38.321Z,53.84
2022-09-26T04:30:04.867Z,53.69
2022-09-26T04:32:31.291Z,54.23
2022-09-26T04:34:58.135Z,54.09
2022-09-26T04:37:24.473Z,54.22
2022-09-26T04:39:50.864Z,54.70
2022-09-26T04:42:17.199Z,54.77
2022-09-26T04:44:43.545Z,54.82
2022-09-26T04:47:09.994Z,55.03
2022-09-26T04:49:36.791Z,55.47
2022-09-26T04:52:03.223Z,55.96
2022-09-26T04:54:29.575Z,57.03
2022-09-26T04:56:55.924Z,56.41
2022-09-26T04:59:22.334Z,56.17
2022-09-26T05:01:48.931Z,55.71
2022-09-26T05:04:15.343Z,55.21
2022-09-26T05:06:41.707Z,55.60
2022-09-26T05:09:08.356Z,57.03
2022-09-26T05:11:34.688Z,57.15
2022-09-26T05:14:01.140Z,58.10
2022-09-26T05:16:27.621Z,57.18
2022-09-26T05:18:54.007Z,57.00
2022-09-26T05:21:20.366Z,57.45
2022-09-26T05:23:46.836Z,56.52
2022-09-26T05:26:13.203Z,55.79
2022-09-26T05:28:39.746Z,55.57
2022-09-26T05:31:06.268Z,55.63
2022-09-26T05:33:32.640Z,55.42
2022-09-26T05:35:58.981Z,55.32
2022-09-26T05:38:25.662Z,55.16
2022-09-26T05:40:52.078Z,56.16
2022-09-26T05:43:18.747Z,55.77
2022-09-26T05:45:45.382Z,55.86
2022-09-26T05:48:11.796Z,55.56
2022-09-26T05:50:41.648Z,54.71
2022-09-26T05:53:10.057Z,55.03
2022-09-26T05:55:36.465Z,54.81
2022-09-26T05:58:02.814Z,56.06
2022-09-26T06:00:29.435Z,55.37
2022-09-26T06:02:55.854Z,55.82
2022-09-26T06:05:22.369Z,55.19
2022-09-26T06:07:48.976Z,55.59
2022-09-26T06:10:15.324Z,55.72
2022-09-26T06:12:41.692Z,55.10
2022-09-26T06:15:08.325Z,55.08
2022-09-26T06:17:34.755Z,55.31
2022-09-26T06:20:01.244Z,55.30
2022-09-26T06:22:27.803Z,55.29
2022-09-26T06:24:54.214Z,54.89
2022-09-26T06:27:20.609Z,54.89
2022-09-26T06:29:47.353Z,54.63
2022-09-26T06:32:13.702Z,54.23
2022-09-26T06:34:40.056Z,54.65
2022-09-26T06:37:06.765Z,54.89
2022-09-26T06:39:33.142Z,55.23
2022-09-26T06:41:59.572Z,54.79
2022-09-26T06:44:26.140Z,55.28
2022-09-26T06:46:52.645Z,55.20
2022-09-26T06:49:19.077Z,56.09
2022-09-26T06:51:45.613Z,55.28
2022-09-26T06:54:12.150Z,55.60
2022-09-26T06:56:38.664Z,54.99
2022-09-26T06:59:05.027Z,54.45
2022-09-26T07:01:31.487Z,54.60
2022-09-26T08:09:48.854Z,53.15
2022-09-26T08:12:15.458Z,53.49
2022-09-26T08:14:41.900Z,53.13
2022-09-26T08:17:11.983Z,52.91
2022-09-26T08:19:41.250Z,52.72
2022-09-26T08:22:07.670Z,53.22
2022-09-26T08:24:34.390Z,52.97
2022-09-26T08:27:01.298Z,52.74
2022-09-26T08:29:27.661Z,52.87
2022-09-26T08:31:54.276Z,52.60
2022-09-26T08:34:25.024Z,54.84
2022-09-26T08:36:52.085Z,54.43
2022-09-26T08:39:18.525Z,52.80
2022-09-26T08:41:45.388Z,52.38
2022-09-26T08:44:11.890Z,52.39
2022-09-26T08:46:40.631Z,51.45
2022-09-26T08:49:07.424Z,52.98
2022-09-26T08:51:35.174Z,52.29
2022-09-26T08:54:01.916Z,53.93
2022-09-26T08:56:28.891Z,53.21
2022-09-26T08:58:55.307Z,53.79
2022-09-26T09:01:21.869Z,53.98
2022-09-26T09:03:48.489Z,53.92
2022-09-26T09:06:15.108Z,53.64
2022-09-26T09:08:41.460Z,53.84
2022-09-26T09:11:08.303Z,52.70
2022-09-26T09:13:34.634Z,52.27
2022-09-26T09:16:01.125Z,52.80
2022-09-26T09:18:27.610Z,53.09
2022-09-26T09:20:53.911Z,53.85
2022-09-26T09:23:20.467Z,53.18
2022-09-26T09:25:46.885Z,52.13
2022-09-26T09:28:13.304Z,52.65
2022-09-26T09:30:39.716Z,51.95
2022-09-26T09:33:06.151Z,51.20
2022-09-26T09:35:32.541Z,50.57
2022-09-26T09:37:58.938Z,50.25
2022-09-26T09:40:25.705Z,50.08
2022-09-26T09:42:52.106Z,50.41
2022-09-26T09:45:18.501Z,50.89
2022-09-26T09:47:45.626Z,50.46
2022-09-26T09:50:11.968Z,50.35
2022-09-26T09:52:38.399Z,50.83
2022-09-26T09:55:05.048Z,49.46
2022-09-26T09:57:31.351Z,49.71
2022-09-26T09:59:57.693Z,47.98
2022-09-26T10:02:24.889Z,47.88
2022-09-26T10:04:51.337Z,48.18
2022-09-26T10:07:17.723Z,48.01
2022-09-26T10:09:44.915Z,48.75
2022-09-26T10:12:13.668Z,48.40
2022-09-26T10:14:39.983Z,48.34
2022-09-26T10:17:06.669Z,47.16
2022-09-26T10:19:37.375Z,46.56
2022-09-26T10:22:03.873Z,47.08
2022-09-26T10:24:30.337Z,45.15
2022-09-26T10:26:56.750Z,46.36
2022-09-26T10:29:23.178Z,46.10
2022-09-26T10:31:49.912Z,45.14
2022-09-26T10:34:16.439Z,44.24
2022-09-26T10:36:43.111Z,47.00
2022-09-26T10:39:10.190Z,46.28
2022-09-26T10:41:36.514Z,45.34
2022-09-26T10:44:02.942Z,45.62
2022-09-26T10:46:30.757Z,44.78
2022-09-26T10:48:57.227Z,44.70
2022-09-26T10:51:23.629Z,44.83
2022-09-26T10:53:50.238Z,43.75
2022-09-26T10:56:16.815Z,43.36
2022-09-26T10:58:43.237Z,43.27
2022-09-26T11:01:09.632Z,43.59
2022-09-26T11:03:36.103Z,42.76
2022-09-26T11:06:02.502Z,43.22
2022-09-26T11:08:29.978Z,43.01
2022-09-26T11:10:56.434Z,42.02
2022-09-26T11:13:22.936Z,42.58
2022-09-26T11:15:49.385Z,43.25
2022-09-26T11:18:16.901Z,42.75
2022-09-26T11:20:43.265Z,43.16
2022-09-26T11:23:09.716Z,43.70
2022-09-26T11:25:36.113Z,43.64
2022-09-26T11:28:02.456Z,43.20
2022-09-26T11:30:29.308Z,42.07
2022-09-26T11:32:55.639Z,42.85
2022-09-26T11:35:22.006Z,42.14
2022-09-26T11:37:48.750Z,43.26
2022-09-26T11:40:15.131Z,42.18
2022-09-26T11:42:41.601Z,41.11
2022-09-26T11:45:08.046Z,41.29
2022-09-26T11:47:41.746Z,41.97
2022-09-26T11:50:08.203Z,40.97
2022-09-26T11:52:34.797Z,40.91
2022-09-26T11:55:01.112Z,40.69
2022-09-26T11:57:27.517Z,40.74
2022-09-26T11:59:53.881Z,40.71
2022-09-26T12:02:22.872Z,40.98
2022-09-26T12:04:50.063Z,41.38
2022-09-26T12:07:16.444Z,41.07
2022-09-26T12:09:43.228Z,41.12
2022-09-26T12:12:12.632Z,41.09
2022-09-26T12:14:39.300Z,40.03
2022-09-26T12:17:05.711Z,40.73
2022-09-26T12:19:33.985Z,40.52
2022-09-26T12:22:00.328Z,40.42
2022-09-26T12:24:26.693Z,41.70
2022-09-26T12:26:54.584Z,42.31
2022-09-26T12:29:20.988Z,41.94
2022-09-26T12:31:47.433Z,43.19
2022-09-26T12:34:14.619Z,43.60
2022-09-26T12:36:41.120Z,42.46
2022-09-26T12:39:07.967Z,43.96
2022-09-26T12:41:34.687Z,43.96
2022-09-26T12:44:01.029Z,43.78
2022-09-26T12:46:27.672Z,42.80
2022-09-26T12:48:54.514Z,40.05
2022-09-26T12:51:20.913Z,40.54
2022-09-26T12:53:47.303Z,40.54
2022-09-26T12:56:14.058Z,40.31
2022-09-26T12:58:40.467Z,39.27
2022-09-26T13:01:06.895Z,39.68
2022-09-26T13:03:33.609Z,39.06
2022-09-26T13:06:08.352Z,40.58
2022-09-26T13:08:35.228Z,41.44
2022-09-26T13:11:01.595Z,42.27
2022-09-26T13:13:28.057Z,38.92
2022-09-26T13:15:54.569Z,40.75
2022-09-26T13:18:25.843Z,42.33
2022-09-26T13:20:53.369Z,39.16
2022-09-26T13:23:20.042Z,38.37
2022-09-26T13:25:49.705Z,38.99
2022-09-26T13:28:16.676Z,39.53
2022-09-26T13:30:44.889Z,39.59
2022-09-26T13:33:11.263Z,39.45
2022-09-26T13:35:37.629Z,38.76
2022-09-26T13:38:08.003Z,39.44
2022-09-26T13:40:35.194Z,39.91
2022-09-26T13:43:03.119Z,39.68
2022-09-26T13:45:29.730Z,39.89
2022-09-26T13:47:56.134Z,38.49
2022-09-26T13:50:23.035Z,38.60
2022-09-26T13:52:49.457Z,37.63
2022-09-26T13:55:15.950Z,36.84
2022-09-26T13:57:42.278Z,36.59
2022-09-26T14:00:08.821Z,36.61
2022-09-26T14:02:35.229Z,35.75
2022-09-26T14:05:01.939Z,35.72
2022-09-26T14:07:28.490Z,35.65
2022-09-26T14:09:54.992Z,36.24
2022-09-26T14:12:21.346Z,36.76
2022-09-26T14:14:48.149Z,36.85
2022-09-26T14:17:19.978Z,37.17
2022-09-26T14:19:46.584Z,36.89
2022-09-26T14:22:13.206Z,36.63
2022-09-26T14:24:39.712Z,36.53
2022-09-26T14:27:06.048Z,36.06
2022-09-26T14:29:32.820Z,36.67
2022-09-26T14:31:59.226Z,37.16
2022-09-26T14:34:25.653Z,36.98
2022-09-26T14:36:52.362Z,36.59
2022-09-26T14:39:18.731Z,36.74
2022-09-26T14:41:45.052Z,36.33
2022-09-26T14:44:11.499Z,36.37
2022-09-26T14:46:37.974Z,35.37
2022-09-26T14:49:04.418Z,35.15
2022-09-26T14:51:30.819Z,34.16
2022-09-26T14:53:57.186Z,35.93
2022-09-26T14:56:23.546Z,35.79
2022-09-26T14:58:50.149Z,35.25
2022-09-26T15:01:16.505Z,35.62
2022-09-26T15:03:42.937Z,35.77
2022-09-26T15:06:09.837Z,35.92
2022-09-26T15:08:39.278Z,35.79
2022-09-26T15:11:06.039Z,35.73
2022-09-26T15:13:32.624Z,36.15
2022-09-26T15:15:59.002Z,35.98
2022-09-26T15:18:25.414Z,35.99
2022-09-26T15:20:52.156Z,35.27
2022-09-26T15:23:18.661Z,35.27
2022-09-26T15:25:45.015Z,35.08
2022-09-26T15:28:11.724Z,35.19
2022-09-26T15:30:38.038Z,35.25
2022-09-26T15:33:04.398Z,34.81
2022-09-26T15:35:30.832Z,36.21
2022-09-26T15:37:57.190Z,36.45
2022-09-26T15:40:23.613Z,35.62
2022-09-26T15:42:50.029Z,35.33
2022-09-26T15:45:16.390Z,35.79
2022-09-26T15:47:42.771Z,35.60
2022-09-26T15:50:09.242Z,35.48
2022-09-26T15:52:35.721Z,35.13
2022-09-26T15:55:02.648Z,35.66
2022-09-26T15:57:29.580Z,34.78
2022-09-26T15:59:58.144Z,35.21
2022-09-26T16:02:24.745Z,35.03
2022-09-26T16:04:51.308Z,35.55
2022-09-26T16:07:17.595Z,35.62
2022-09-26T16:09:44.055Z,35.29
2022-09-26T16:12:14.436Z,35.05
2022-09-26T16:14:41.564Z,36.16
2022-09-26T16:17:07.947Z,36.15
2022-09-26T16:19:35.353Z,36.10
2022-09-26T16:22:01.691Z,37.44
2022-09-26T16:24:30.574Z,38.03
2022-09-26T16:26:57.244Z,38.45
2022-09-26T16:29:25.967Z,38.72
2022-09-26T16:31:52.500Z,37.34
2022-09-26T16:34:18.903Z,37.00
2022-09-26T16:36:45.277Z,38.16
2022-09-26T16:39:11.852Z,38.15
2022-09-26T16:44:30.315Z,37.79
2022-09-26T16:47:03.541Z,37.98
2022-09-26T16:49:29.897Z,38.88
2022-09-26T16:51:56.261Z,39.37
2022-09-26T16:54:22.745Z,39.72
2022-09-26T16:56:49.064Z,40.01
2022-09-26T16:59:15.433Z,38.59
2022-09-26T17:01:41.890Z,38.59
2022-09-26T17:04:08.478Z,39.36
2022-09-26T17:06:35.316Z,39.78
2022-09-26T17:09:02.100Z,40.15
2022-09-26T17:11:28.435Z,39.91
2022-09-26T17:13:54.818Z,39.65
2022-09-26T17:16:21.439Z,39.47
2022-09-26T17:18:47.804Z,39.95
2022-09-26T17:21:14.336Z,40.02
2022-09-26T17:23:42.201Z,40.23
2022-09-26T17:26:08.798Z,39.56
2022-09-26T17:28:36.241Z,40.00
2022-09-26T17:31:02.833Z,39.48
2022-09-26T17:33:29.486Z,40.08
2022-09-26T17:35:55.986Z,40.21
2022-09-26T17:38:22.725Z,39.77
2022-09-26T17:40:49.365Z,39.93
2022-09-26T17:43:15.804Z,39.69
2022-09-26T17:45:42.245Z,39.92
2022-09-26T17:48:08.647Z,40.04
2022-09-26T17:50:35.007Z,39.22
2022-09-26T17:53:01.419Z,39.50
2022-09-26T17:55:27.751Z,40.32
2022-09-26T17:57:54.056Z,40.03
2022-09-26T18:00:20.557Z,40.50
2022-09-26T18:02:47.003Z,40.31
2022-09-26T18:05:13.363Z,40.80
2022-09-26T18:07:39.842Z,40.17
2022-09-26T18:10:08.605Z,40.71
2022-09-26T18:12:34.960Z,40.75
2022-09-26T18:15:01.335Z,40.55
2022-09-26T18:17:28.529Z,40.54
2022-09-26T18:19:55.031Z,39.55
2022-09-26T18:22:21.817Z,40.76
2022-09-26T18:24:48.672Z,41.39
2022-09-26T18:27:15.117Z,40.68
2022-09-26T18:29:41.736Z,40.42
2022-09-26T18:32:08.466Z,40.26
2022-09-26T18:34:35.464Z,40.42
2022-09-26T18:37:02.550Z,41.08
2022-09-26T18:39:29.716Z,40.99
2022-09-26T18:41:56.242Z,41.04
2022-09-26T18:44:23.065Z,40.88
2022-09-26T18:46:50.746Z,40.97
2022-09-26T18:49:17.473Z,40.88
2022-09-26T18:51:44.064Z,40.83
2022-09-26T18:54:11.656Z,40.82
2022-09-26T18:56:39.560Z,40.81
2022-09-26T18:59:06.619Z,40.76
2022-09-26T19:01:33.297Z,40.83
2022-09-26T19:04:01.485Z,40.56
2022-09-26T19:06:28.384Z,40.94
2022-09-26T19:08:55.150Z,40.82
2022-09-26T19:11:22.679Z,40.50
2022-09-26T19:13:49.383Z,41.47
2022-09-26T19:16:16.575Z,41.64
2022-09-26T19:18:43.074Z,41.53
2022-09-26T19:21:10.319Z,41.37
2022-09-26T19:23:37.223Z,41.24
2022-09-26T19:26:04.179Z,42.06
2022-09-26T19:28:30.607Z,42.24
2022-09-26T19:30:57.244Z,42.54
2022-09-26T19:33:23.692Z,42.28
2022-09-26T19:35:50.547Z,42.07
2022-09-26T19:38:17.393Z,42.70
2022-09-26T19:40:48.562Z,43.03
2022-09-26T19:43:17.394Z,43.37
2022-09-26T19:45:44.199Z,43.47
2022-09-26T19:48:10.672Z,43.25
2022-09-26T19:50:37.354Z,43.06
2022-09-26T19:53:03.757Z,42.99
2022-09-26T19:55:30.581Z,43.53
2022-09-26T19:57:57.135Z,43.25
2022-09-26T20:00:23.649Z,43.46
2022-09-26T20:02:50.062Z,43.93
2022-09-26T20:05:16.671Z,43.85
2022-09-26T20:07:43.086Z,43.99
2022-09-26T20:10:09.478Z,44.46
2022-09-26T20:12:36.165Z,45.47
2022-09-26T20:15:02.986Z,45.85
2022-09-26T20:17:29.426Z,46.01
2022-09-26T20:19:58.958Z,46.35
2022-09-26T20:22:25.680Z,46.24
2022-09-26T20:24:52.134Z,46.16
2022-09-26T20:27:19.329Z,47.25
2022-09-26T20:29:45.705Z,46.83
2022-09-26T20:32:15.374Z,46.31
2022-09-26T20:34:42.379Z,45.87
2022-09-26T20:37:08.861Z,45.98
2022-09-26T20:39:35.246Z,45.74
2022-09-26T20:42:01.856Z,45.58
2022-09-26T20:44:28.275Z,45.97
2022-09-26T20:46:54.653Z,46.07
2022-09-26T20:49:21.150Z,46.56
2022-09-26T20:51:47.555Z,47.92
2022-09-26T20:54:14.231Z,47.59
2022-09-26T20:56:43.622Z,48.31
2022-09-26T20:59:10.227Z,47.85
2022-09-26T21:01:36.763Z,47.54
2022-09-26T21:04:03.414Z,47.16
2022-09-26T21:06:29.849Z,46.75
2022-09-26T21:08:56.398Z,46.38
2022-09-26T21:11:22.774Z,46.40
2022-09-26T21:13:49.128Z,46.83
2022-09-26T21:16:15.598Z,46.58
2022-09-26T21:18:42.159Z,46.45
2022-09-26T21:21:08.572Z,46.51
2022-09-26T21:23:34.930Z,46.83
2022-09-26T21:26:01.412Z,47.12
2022-09-26T21:28:27.902Z,47.39
2022-09-26T21:30:54.381Z,47.45
2022-09-26T21:33:20.913Z,47.44
2022-09-26T21:35:47.311Z,47.05
2022-09-26T21:38:13.658Z,48.40
2022-09-26T21:40:40.191Z,47.74
2022-09-26T21:43:06.566Z,47.93
2022-09-26T21:45:33.364Z,47.85
2022-09-26T21:47:59.816Z,48.16
2022-09-26T21:50:26.218Z,48.13
2022-09-26T21:52:52.573Z,48.22
2022-09-26T21:55:19.270Z,47.97
2022-09-26T21:57:45.640Z,48.24
2022-09-26T22:00:12.016Z,48.08
2022-09-26T22:02:38.482Z,48.21
2022-09-26T22:05:05.014Z,48.60
2022-09-26T22:07:31.332Z,48.69
2022-09-26T22:09:58.252Z,48.53
2022-09-26T22:12:24.812Z,48.01
2022-09-26T22:14:51.161Z,47.86
2022-09-26T22:17:17.681Z,48.04
2022-09-26T22:19:44.028Z,47.96
2022-09-26T22:22:10.374Z,48.34
2022-09-26T22:24:37.153Z,48.34
2022-09-26T22:27:03.515Z,48.37
2022-09-26T22:29:29.863Z,48.26
2022-09-26T22:31:56.496Z,48.58
2022-09-26T22:34:23.032Z,48.41
2022-09-26T22:36:49.364Z,48.86
2022-09-26T22:39:15.969Z,48.51
2022-09-26T22:41:42.533Z,47.91
2022-09-26T22:44:08.905Z,48.74
2022-09-26T22:46:35.515Z,48.18
2022-09-26T22:49:01.983Z,47.99
2022-09-26T22:51:28.857Z,47.75
2022-09-26T22:53:55.425Z,48.11
2022-09-26T22:56:21.786Z,48.11
2022-09-26T22:58:48.169Z,48.40
2022-09-26T23:01:15.120Z,48.03
2022-09-26T23:03:41.544Z,48.08
2022-09-26T23:06:08.108Z,47.83
2022-09-26T23:08:34.514Z,47.77
2022-09-26T23:11:00.980Z,47.59
2022-09-26T23:13:27.394Z,47.57
2022-09-26T23:15:53.825Z,47.77
2022-09-26T23:18:20.238Z,47.72
2022-09-26T23:20:46.632Z,47.85
2022-09-26T23:23:13.058Z,48.02
2022-09-26T23:25:39.429Z,47.72
2022-09-26T23:28:05.863Z,47.73
2022-09-26T23:30:32.386Z,48.09
2022-09-26T23:32:58.856Z,47.93
2022-09-26T23:35:25.174Z,47.93
2022-09-26T23:37:51.612Z,47.93
2022-09-26T23:40:18.103Z,48.50
2022-09-26T23:42:44.795Z,49.15
2022-09-26T23:45:11.189Z,49.03
2022-09-26T23:47:38.016Z,49.45
2022-09-26T23:50:04.457Z,48.79
2022-09-26T23:52:30.937Z,48.59
2022-09-26T23:54:57.421Z,48.88
2022-09-26T23:57:23.844Z,48.69
2022-09-26T23:59:50.499Z,48.48
